Terminal Aerodrome Forecast
Issued by NWS Spokane, WA

Home | Current Version | Previous Version | Text Only | Print | Product List | Glossary On
Versions: 1 2 3 4 5 6 7 8 9 10 11 12 13 14 15 16 17 18 19 20 21 22 23 24 25 26 27 28 29 30 31 32 33 34 35 36 37 38 39 40 41 42 43
000
FTUS46 KOTX 251728
TAFGEG
TAF
KGEG 251728Z 2518/2618 16005KT P6SM BKN012 BKN120
     FM252300 09006KT P6SM SCT015 BKN200
     FM260900 06003KT 4SM BR BKN004 BKN200
     FM261600 10006KT P6SM BCFG SCT008=

USA.gov is the U.S. government's official web portal to all federal, state and local government web resources and services.